sensor_id;sensor_type;location;lat;lon;timestamp;P1;durP1;ratioP1;P2;durP2;ratioP2
55794;SDS011;41716;51.910;4.430;2023-02-15T00:02:24;43.03;;;23.08;;
55794;SDS011;41716;51.910;4.430;2023-02-15T00:07:25;39.63;;;23.13;;
55794;SDS011;41716;51.910;4.430;2023-02-15T00:12:27;40.00;;;22.50;;
55794;SDS011;41716;51.910;4.430;2023-02-15T00:17:30;37.33;;;20.88;;
55794;SDS011;41716;51.910;4.430;2023-02-15T00:22:32;40.15;;;22.27;;
55794;SDS011;41716;51.910;4.430;2023-02-15T00:27:34;38.53;;;21.23;;
55794;SDS011;41716;51.910;4.430;2023-02-15T00:32:37;38.58;;;22.90;;
55794;SDS011;41716;51.910;4.430;2023-02-15T00:37:38;41.10;;;22.85;;
55794;SDS011;41716;51.910;4.430;2023-02-15T00:42:40;40.88;;;20.77;;
55794;SDS011;41716;51.910;4.430;2023-02-15T00:47:43;37.45;;;21.58;;
55794;SDS011;41716;51.910;4.430;2023-02-15T00:52:45;38.60;;;20.58;;
55794;SDS011;41716;51.910;4.430;2023-02-15T00:57:46;40.97;;;22.00;;
55794;SDS011;41716;51.910;4.430;2023-02-15T01:02:49;43.22;;;23.70;;
55794;SDS011;41716;51.910;4.430;2023-02-15T01:07:51;39.13;;;23.00;;
55794;SDS011;41716;51.910;4.430;2023-02-15T01:12:53;42.78;;;22.17;;
55794;SDS011;41716;51.910;4.430;2023-02-15T01:17:57;40.60;;;22.40;;
55794;SDS011;41716;51.910;4.430;2023-02-15T01:22:58;39.65;;;22.08;;
55794;SDS011;41716;51.910;4.430;2023-02-15T01:28:00;41.60;;;21.77;;
55794;SDS011;41716;51.910;4.430;2023-02-15T01:33:03;42.63;;;22.80;;
55794;SDS011;41716;51.910;4.430;2023-02-15T01:38:05;39.55;;;22.33;;
55794;SDS011;41716;51.910;4.430;2023-02-15T01:43:09;42.97;;;22.95;;
55794;SDS011;41716;51.910;4.430;2023-02-15T01:48:16;41.28;;;22.02;;
55794;SDS011;41716;51.910;4.430;2023-02-15T01:53:24;38.28;;;21.30;;
55794;SDS011;41716;51.910;4.430;2023-02-15T01:58:28;38.58;;;21.73;;
55794;SDS011;41716;51.910;4.430;2023-02-15T02:03:34;38.00;;;20.65;;
55794;SDS011;41716;51.910;4.430;2023-02-15T02:08:39;38.25;;;21.02;;
55794;SDS011;41716;51.910;4.430;2023-02-15T02:13:43;40.53;;;21.73;;
55794;SDS011;41716;51.910;4.430;2023-02-15T02:18:49;38.42;;;21.20;;
55794;SDS011;41716;51.910;4.430;2023-02-15T02:24:08;39.08;;;20.65;;
55794;SDS011;41716;51.910;4.430;2023-02-15T02:35:01;39.75;;;21.15;;
55794;SDS011;41716;51.910;4.430;2023-02-15T02:40:11;39.65;;;20.58;;
55794;SDS011;41716;51.910;4.430;2023-02-15T02:45:19;40.38;;;21.00;;
55794;SDS011;41716;51.910;4.430;2023-02-15T02:50:27;38.28;;;21.20;;
55794;SDS011;41716;51.910;4.430;2023-02-15T02:55:31;40.95;;;20.77;;
55794;SDS011;41716;51.910;4.430;2023-02-15T03:00:37;39.42;;;20.65;;
55794;SDS011;41716;51.910;4.430;2023-02-15T03:05:43;43.25;;;22.27;;
55794;SDS011;41716;51.910;4.430;2023-02-15T03:10:48;38.88;;;20.30;;
55794;SDS011;41716;51.910;4.430;2023-02-15T03:15:56;38.28;;;20.40;;
55794;SDS011;41716;51.910;4.430;2023-02-15T03:21:18;40.08;;;21.33;;
55794;SDS011;41716;51.910;4.430;2023-02-15T03:26:25;38.35;;;21.13;;
55794;SDS011;41716;51.910;4.430;2023-02-15T03:31:30;40.20;;;21.63;;
55794;SDS011;41716;51.910;4.430;2023-02-15T03:36:39;38.95;;;20.63;;
55794;SDS011;41716;51.910;4.430;2023-02-15T03:41:48;41.38;;;21.73;;
55794;SDS011;41716;51.910;4.430;2023-02-15T03:47:10;37.83;;;21.13;;
55794;SDS011;41716;51.910;4.430;2023-02-15T03:52:15;40.70;;;21.55;;
55794;SDS011;41716;51.910;4.430;2023-02-15T03:57:18;40.33;;;20.63;;
55794;SDS011;41716;51.910;4.430;2023-02-15T04:02:40;39.00;;;20.60;;
55794;SDS011;41716;51.910;4.430;2023-02-15T04:07:54;41.30;;;21.35;;
55794;SDS011;41716;51.910;4.430;2023-02-15T04:12:56;40.13;;;21.08;;
55794;SDS011;41716;51.910;4.430;2023-02-15T04:17:58;42.70;;;21.67;;
55794;SDS011;41716;51.910;4.430;2023-02-15T04:23:03;40.72;;;20.77;;
55794;SDS011;41716;51.910;4.430;2023-02-15T04:33:26;41.67;;;22.05;;
55794;SDS011;41716;51.910;4.430;2023-02-15T04:38:29;39.97;;;21.23;;
55794;SDS011;41716;51.910;4.430;2023-02-15T04:43:30;41.40;;;22.92;;
55794;SDS011;41716;51.910;4.430;2023-02-15T04:48:32;45.50;;;23.17;;
55794;SDS011;41716;51.910;4.430;2023-02-15T04:53:35;43.72;;;24.65;;
55794;SDS011;41716;51.910;4.430;2023-02-15T04:58:37;43.28;;;22.25;;
55794;SDS011;41716;51.910;4.430;2023-02-15T05:03:41;39.08;;;20.80;;
55794;SDS011;41716;51.910;4.430;2023-02-15T05:08:44;39.15;;;20.25;;
55794;SDS011;41716;51.910;4.430;2023-02-15T05:13:45;37.90;;;19.85;;
55794;SDS011;41716;51.910;4.430;2023-02-15T05:18:47;38.58;;;19.40;;
55794;SDS011;41716;51.910;4.430;2023-02-15T05:23:50;40.58;;;20.45;;
55794;SDS011;41716;51.910;4.430;2023-02-15T05:28:52;36.80;;;19.05;;
55794;SDS011;41716;51.910;4.430;2023-02-15T05:33:53;34.67;;;18.60;;
55794;SDS011;41716;51.910;4.430;2023-02-15T05:38:56;34.88;;;19.17;;
55794;SDS011;41716;51.910;4.430;2023-02-15T05:43:58;38.08;;;18.65;;
55794;SDS011;41716;51.910;4.430;2023-02-15T05:49:00;38.08;;;19.35;;
55794;SDS011;41716;51.910;4.430;2023-02-15T05:54:03;33.40;;;17.88;;
55794;SDS011;41716;51.910;4.430;2023-02-15T05:59:04;33.33;;;18.08;;
55794;SDS011;41716;51.910;4.430;2023-02-15T06:04:06;35.25;;;18.80;;
55794;SDS011;41716;51.910;4.430;2023-02-15T06:09:10;37.00;;;18.95;;
55794;SDS011;41716;51.910;4.430;2023-02-15T06:14:13;34.78;;;18.63;;
55794;SDS011;41716;51.910;4.430;2023-02-15T06:19:14;36.30;;;18.52;;
55794;SDS011;41716;51.910;4.430;2023-02-15T06:24:17;33.67;;;18.20;;
55794;SDS011;41716;51.910;4.430;2023-02-15T06:29:19;34.72;;;17.15;;
55794;SDS011;41716;51.910;4.430;2023-02-15T06:34:21;34.58;;;18.40;;
55794;SDS011;41716;51.910;4.430;2023-02-15T06:39:24;35.75;;;18.40;;
55794;SDS011;41716;51.910;4.430;2023-02-15T06:44:25;35.47;;;18.02;;
55794;SDS011;41716;51.910;4.430;2023-02-15T06:49:27;31.25;;;17.48;;
55794;SDS011;41716;51.910;4.430;2023-02-15T06:54:30;31.45;;;17.10;;
55794;SDS011;41716;51.910;4.430;2023-02-15T06:59:32;35.33;;;17.88;;
55794;SDS011;41716;51.910;4.430;2023-02-15T07:04:33;34.75;;;18.13;;
55794;SDS011;41716;51.910;4.430;2023-02-15T07:09:37;35.55;;;18.48;;
55794;SDS011;41716;51.910;4.430;2023-02-15T07:14:39;32.45;;;17.33;;
55794;SDS011;41716;51.910;4.430;2023-02-15T07:19:41;31.35;;;17.67;;
55794;SDS011;41716;51.910;4.430;2023-02-15T07:24:44;30.25;;;17.75;;
